sensor_id;sensor_type;location;lat;lon;timestamp;P1;durP1;ratioP1;P2;durP2;ratioP2
3865;SDS011;1948;53.250;10.412;2022-07-23T00:00:23;5.47;;;3.43;;
3865;SDS011;1948;53.250;10.412;2022-07-23T00:02:51;11.30;;;2.80;;
3865;SDS011;1948;53.250;10.412;2022-07-23T00:05:21;4.10;;;2.23;;
3865;SDS011;1948;53.250;10.412;2022-07-23T00:07:50;13.23;;;2.40;;
3865;SDS011;1948;53.250;10.412;2022-07-23T00:10:18;7.13;;;2.30;;
3865;SDS011;1948;53.250;10.412;2022-07-23T00:12:44;13.53;;;2.70;;
3865;SDS011;1948;53.250;10.412;2022-07-23T00:15:17;7.77;;;2.47;;
3865;SDS011;1948;53.250;10.412;2022-07-23T00:17:47;9.00;;;2.67;;
3865;SDS011;1948;53.250;10.412;2022-07-23T00:20:14;2.40;;;2.23;;
3865;SDS011;1948;53.250;10.412;2022-07-23T00:22:50;2.57;;;2.03;;
3865;SDS011;1948;53.250;10.412;2022-07-23T00:25:21;6.07;;;2.33;;
3865;SDS011;1948;53.250;10.412;2022-07-23T00:27:57;2.40;;;2.20;;
3865;SDS011;1948;53.250;10.412;2022-07-23T00:30:25;14.67;;;2.60;;
3865;SDS011;1948;53.250;10.412;2022-07-23T00:32:56;11.40;;;2.10;;
3865;SDS011;1948;53.250;10.412;2022-07-23T00:35:28;16.90;;;2.60;;
3865;SDS011;1948;53.250;10.412;2022-07-23T00:37:58;2.60;;;2.00;;
3865;SDS011;1948;53.250;10.412;2022-07-23T00:40:26;6.10;;;2.50;;
3865;SDS011;1948;53.250;10.412;2022-07-23T00:42:56;13.23;;;2.10;;
3865;SDS011;1948;53.250;10.412;2022-07-23T00:45:25;7.03;;;2.47;;
3865;SDS011;1948;53.250;10.412;2022-07-23T00:47:55;4.40;;;2.20;;
3865;SDS011;1948;53.250;10.412;2022-07-23T00:50:27;4.00;;;2.17;;
3865;SDS011;1948;53.250;10.412;2022-07-23T00:52:54;2.43;;;2.23;;
3865;SDS011;1948;53.250;10.412;2022-07-23T00:55:22;4.00;;;2.50;;
3865;SDS011;1948;53.250;10.412;2022-07-23T00:57:49;8.83;;;2.63;;
3865;SDS011;1948;53.250;10.412;2022-07-23T01:00:19;7.17;;;2.37;;
3865;SDS011;1948;53.250;10.412;2022-07-23T01:02:49;1.73;;;1.73;;
3865;SDS011;1948;53.250;10.412;2022-07-23T01:05:20;6.67;;;1.90;;
3865;SDS011;1948;53.250;10.412;2022-07-23T01:07:49;6.57;;;2.70;;
3865;SDS011;1948;53.250;10.412;2022-07-23T01:10:21;8.83;;;2.63;;
3865;SDS011;1948;53.250;10.412;2022-07-23T01:15:35;4.53;;;2.23;;
3865;SDS011;1948;53.250;10.412;2022-07-23T01:18:04;4.87;;;2.40;;
3865;SDS011;1948;53.250;10.412;2022-07-23T01:20:33;3.43;;;1.80;;
3865;SDS011;1948;53.250;10.412;2022-07-23T01:23:01;8.10;;;2.57;;
3865;SDS011;1948;53.250;10.412;2022-07-23T01:25:30;3.57;;;2.00;;
3865;SDS011;1948;53.250;10.412;2022-07-23T01:27:59;5.23;;;2.27;;
3865;SDS011;1948;53.250;10.412;2022-07-23T01:30:26;8.97;;;2.10;;
3865;SDS011;1948;53.250;10.412;2022-07-23T01:32:53;2.93;;;2.40;;
3865;SDS011;1948;53.250;10.412;2022-07-23T01:35:22;7.00;;;2.70;;
3865;SDS011;1948;53.250;10.412;2022-07-23T01:37:49;7.07;;;2.33;;
3865;SDS011;1948;53.250;10.412;2022-07-23T01:40:16;5.63;;;2.33;;
3865;SDS011;1948;53.250;10.412;2022-07-23T01:42:44;4.07;;;2.60;;
3865;SDS011;1948;53.250;10.412;2022-07-23T01:45:11;4.93;;;2.30;;
3865;SDS011;1948;53.250;10.412;2022-07-23T01:47:41;9.00;;;3.00;;
3865;SDS011;1948;53.250;10.412;2022-07-23T01:50:08;7.53;;;3.00;;
3865;SDS011;1948;53.250;10.412;2022-07-23T01:52:35;6.10;;;2.33;;
3865;SDS011;1948;53.250;10.412;2022-07-23T01:55:04;4.43;;;2.40;;
3865;SDS011;1948;53.250;10.412;2022-07-23T01:57:35;4.83;;;2.50;;
3865;SDS011;1948;53.250;10.412;2022-07-23T02:00:02;9.40;;;2.80;;
3865;SDS011;1948;53.250;10.412;2022-07-23T02:02:30;3.27;;;2.70;;
3865;SDS011;1948;53.250;10.412;2022-07-23T02:04:57;4.53;;;2.30;;
3865;SDS011;1948;53.250;10.412;2022-07-23T02:07:28;8.53;;;2.60;;
3865;SDS011;1948;53.250;10.412;2022-07-23T02:10:00;7.87;;;3.13;;
3865;SDS011;1948;53.250;10.412;2022-07-23T02:12:28;5.13;;;2.60;;
3865;SDS011;1948;53.250;10.412;2022-07-23T02:14:55;4.10;;;2.30;;
3865;SDS011;1948;53.250;10.412;2022-07-23T02:17:22;3.33;;;2.30;;
3865;SDS011;1948;53.250;10.412;2022-07-23T02:19:49;3.53;;;2.23;;
3865;SDS011;1948;53.250;10.412;2022-07-23T02:22:16;4.90;;;2.60;;
3865;SDS011;1948;53.250;10.412;2022-07-23T02:24:45;2.87;;;2.67;;
3865;SDS011;1948;53.250;10.412;2022-07-23T02:27:12;4.30;;;2.77;;
3865;SDS011;1948;53.250;10.412;2022-07-23T02:29:39;3.00;;;2.70;;
3865;SDS011;1948;53.250;10.412;2022-07-23T02:32:06;5.20;;;2.30;;
3865;SDS011;1948;53.250;10.412;2022-07-23T02:34:33;9.30;;;2.27;;
3865;SDS011;1948;53.250;10.412;2022-07-23T02:37:03;5.07;;;2.63;;
3865;SDS011;1948;53.250;10.412;2022-07-23T02:39:30;6.83;;;2.80;;
3865;SDS011;1948;53.250;10.412;2022-07-23T02:41:57;10.00;;;2.80;;
3865;SDS011;1948;53.250;10.412;2022-07-23T02:44:24;11.73;;;2.50;;
3865;SDS011;1948;53.250;10.412;2022-07-23T02:46:54;7.93;;;2.93;;
3865;SDS011;1948;53.250;10.412;2022-07-23T02:49:20;4.63;;;2.50;;
3865;SDS011;1948;53.250;10.412;2022-07-23T02:51:47;4.83;;;2.30;;
3865;SDS011;1948;53.250;10.412;2022-07-23T02:54:17;6.17;;;2.90;;
3865;SDS011;1948;53.250;10.412;2022-07-23T02:56:44;3.20;;;2.93;;
3865;SDS011;1948;53.250;10.412;2022-07-23T02:59:12;6.60;;;3.00;;
3865;SDS011;1948;53.250;10.412;2022-07-23T03:01:39;17.63;;;2.70;;
3865;SDS011;1948;53.250;10.412;2022-07-23T03:04:06;9.13;;;3.33;;
3865;SDS011;1948;53.250;10.412;2022-07-23T03:06:35;5.03;;;2.87;;
3865;SDS011;1948;53.250;10.412;2022-07-23T03:09:02;11.40;;;3.00;;
3865;SDS011;1948;53.250;10.412;2022-07-23T03:11:32;4.60;;;2.80;;
3865;SDS011;1948;53.250;10.412;2022-07-23T03:14:04;3.40;;;3.10;;
3865;SDS011;1948;53.250;10.412;2022-07-23T03:16:32;4.80;;;2.87;;
3865;SDS011;1948;53.250;10.412;2022-07-23T03:19:01;3.70;;;3.20;;
3865;SDS011;1948;53.250;10.412;2022-07-23T03:21:32;6.77;;;2.57;;
3865;SDS011;1948;53.250;10.412;2022-07-23T03:23:59;5.37;;;3.20;;
3865;SDS011;1948;53.250;10.412;2022-07-23T03:26:29;3.20;;;2.80;;
3865;SDS011;1948;53.250;10.412;2022-07-23T03:28:56;7.03;;;3.40;;
3865;SDS011;1948;53.250;10.412;2022-07-23T03:31:23;4.73;;;3.07;;
3865;SDS011;1948;53.250;10.412;2022-07-23T03:33:50;6.13;;;3.37;;
3865;SDS011;1948;53.250;10.412;2022-07-23T03:36:17;7.53;;;2.97;;
3865;SDS011;1948;53.250;10.412;2022-07-23T03:38:47;13.03;;;3.40;;
3865;SDS011;1948;53.250;10.412;2022-07-23T03:41:14;4.50;;;2.60;;
3865;SDS011;1948;53.250;10.412;2022-07-23T03:43:41;10.43;;;2.83;;
3865;SDS011;1948;53.250;10.412;2022-07-23T03:46:12;13.57;;;2.77;;
3865;SDS011;1948;53.250;10.412;2022-07-23T03:48:39;6.13;;;2.90;;
3865;SDS011;1948;53.250;10.412;2022-07-23T03:51:09;11.93;;;2.83;;
3865;SDS011;1948;53.250;10.412;2022-07-23T03:53:36;4.70;;;3.20;;
3865;SDS011;1948;53.250;10.412;2022-07-23T03:56:03;3.43;;;3.13;;
3865;SDS011;1948;53.250;10.412;2022-07-23T03:58:30;5.10;;;3.20;;
3865;SDS011;1948;53.250;10.412;2022-07-23T04:01:00;4.57;;;2.60;;
3865;SDS011;1948;53.250;10.412;2022-07-23T04:03:27;3.57;;;2.33;;
3865;SDS011;1948;53.250;10.412;2022-07-23T04:05:54;2.53;;;2.30;;
3865;SDS011;1948;53.250;10.412;2022-07-23T04:08:21;2.30;;;2.20;;
3865;SDS011;1948;53.250;10.412;2022-07-23T04:10:48;6.60;;;2.87;;
3865;SDS011;1948;53.250;10.412;2022-07-23T04:13:15;13.70;;;3.07;;
3865;SDS011;1948;53.250;10.412;2022-07-23T04:15:42;2.83;;;2.63;;
3865;SDS011;1948;53.250;10.412;2022-07-23T04:18:12;6.40;;;2.93;;
3865;SDS011;1948;53.250;10.412;2022-07-23T04:20:39;2.70;;;2.50;;
3865;SDS011;1948;53.250;10.412;2022-07-23T04:23:10;3.80;;;3.43;;
3865;SDS011;1948;53.250;10.412;2022-07-23T04:25:38;3.30;;;2.70;;
3865;SDS011;1948;53.250;10.412;2022-07-23T04:28:05;8.53;;;3.00;;
3865;SDS011;1948;53.250;10.412;2022-07-23T04:30:31;8.23;;;2.93;;
3865;SDS011;1948;53.250;10.412;2022-07-23T04:32:58;11.40;;;2.47;;
3865;SDS011;1948;53.250;10.412;2022-07-23T04:35:32;3.20;;;2.63;;
3865;SDS011;1948;53.250;10.412;2022-07-23T04:38:02;7.57;;;2.53;;
3865;SDS011;1948;53.250;10.412;2022-07-23T04:40:33;7.17;;;2.33;;
3865;SDS011;1948;53.250;10.412;2022-07-23T04:43:00;6.23;;;2.70;;
3865;SDS011;1948;53.250;10.412;2022-07-23T04:45:31;9.60;;;3.70;;
3865;SDS011;1948;53.250;10.412;2022-07-23T04:48:00;4.53;;;3.00;;
3865;SDS011;1948;53.250;10.412;2022-07-23T04:50:28;3.37;;;2.57;;
3865;SDS011;1948;53.250;10.412;2022-07-23T04:52:54;9.90;;;3.07;;
3865;SDS011;1948;53.250;10.412;2022-07-23T04:55:21;11.70;;;2.63;;
3865;SDS011;1948;53.250;10.412;2022-07-23T04:57:48;8.07;;;3.10;;
3865;SDS011;1948;53.250;10.412;2022-07-23T05:00:16;5.90;;;3.10;;
3865;SDS011;1948;53.250;10.412;2022-07-23T05:02:45;9.50;;;3.90;;
3865;SDS011;1948;53.250;10.412;2022-07-23T05:05:12;6.90;;;3.67;;
3865;SDS011;1948;53.250;10.412;2022-07-23T05:07:41;4.83;;;3.37;;
3865;SDS011;1948;53.250;10.412;2022-07-23T05:10:11;4.70;;;3.87;;
3865;SDS011;1948;53.250;10.412;2022-07-23T05:12:38;3.53;;;3.20;;
3865;SDS011;1948;53.250;10.412;2022-07-23T05:15:05;4.60;;;3.10;;
3865;SDS011;1948;53.250;10.412;2022-07-23T05:17:33;6.47;;;3.27;;
3865;SDS011;1948;53.250;10.412;2022-07-23T05:19:59;4.13;;;3.70;;
3865;SDS011;1948;53.250;10.412;2022-07-23T05:22:26;4.27;;;3.30;;
3865;SDS011;1948;53.250;10.412;2022-07-23T05:24:53;6.03;;;3.80;;
3865;SDS011;1948;53.250;10.412;2022-07-23T05:27:23;9.20;;;3.70;;
3865;SDS011;1948;53.250;10.412;2022-07-23T05:29:54;10.23;;;3.53;;
3865;SDS011;1948;53.250;10.412;2022-07-23T05:32:24;4.87;;;3.30;;
3865;SDS011;1948;53.250;10.412;2022-07-23T05:34:51;3.77;;;3.47;;
3865;SDS011;1948;53.250;10.412;2022-07-23T05:37:17;4.20;;;3.83;;
3865;SDS011;1948;53.250;10.412;2022-07-23T05:39:47;6.33;;;3.67;;
3865;SDS011;1948;53.250;10.412;2022-07-23T05:42:14;5.50;;;3.60;;
3865;SDS011;1948;53.250;10.412;2022-07-23T05:44:43;6.27;;;3.10;;
3865;SDS011;1948;53.250;10.412;2022-07-23T05:47:12;6.73;;;3.40;;
3865;SDS011;1948;53.250;10.412;2022-07-23T05:49:40;6.60;;;3.33;;
3865;SDS011;1948;53.250;10.412;2022-07-23T05:52:09;7.57;;;3.50;;
3865;SDS011;1948;53.250;10.412;2022-07-23T05:54:36;7.00;;;2.87;;
3865;SDS011;1948;53.250;10.412;2022-07-23T05:57:03;9.03;;;3.77;;
3865;SDS011;1948;53.250;10.412;2022-07-23T05:59:30;10.80;;;3.10;;
3865;SDS011;1948;53.250;10.412;2022-07-23T06:02:05;3.50;;;3.10;;
3865;SDS011;1948;53.250;10.412;2022-07-23T06:04:32;8.73;;;3.03;;
3865;SDS011;1948;53.250;10.412;2022-07-23T06:07:00;3.17;;;2.97;;
3865;SDS011;1948;53.250;10.412;2022-07-23T06:09:26;6.47;;;2.90;;
3865;SDS011;1948;53.250;10.412;2022-07-23T06:11:57;8.47;;;2.87;;
3865;SDS011;1948;53.250;10.412;2022-07-23T06:14:24;12.83;;;3.50;;
3865;SDS011;1948;53.250;10.412;2022-07-23T06:16:51;5.60;;;3.27;;
3865;SDS011;1948;53.250;10.412;2022-07-23T06:19:21;12.23;;;3.57;;
3865;SDS011;1948;53.250;10.412;2022-07-23T06:21:48;14.27;;;3.07;;
3865;SDS011;1948;53.250;10.412;2022-07-23T06:24:15;4.67;;;2.97;;
3865;SDS011;1948;53.250;10.412;2022-07-23T06:26:42;12.23;;;3.00;;
3865;SDS011;1948;53.250;10.412;2022-07-23T06:29:09;4.43;;;3.40;;
3865;SDS011;1948;53.250;10.412;2022-07-23T06:31:36;4.93;;;2.93;;
3865;SDS011;1948;53.250;10.412;2022-07-23T06:34:03;3.73;;;2.50;;
3865;SDS011;1948;53.250;10.412;2022-07-23T06:36:30;7.10;;;3.10;;
3865;SDS011;1948;53.250;10.412;2022-07-23T06:39:00;2.67;;;2.20;;
3865;SDS011;1948;53.250;10.412;2022-07-23T06:41:29;10.50;;;2.67;;
3865;SDS011;1948;53.250;10.412;2022-07-23T06:43:56;5.07;;;2.20;;
3865;SDS011;1948;53.250;10.412;2022-07-23T06:46:23;2.43;;;2.20;;
3865;SDS011;1948;53.250;10.412;2022-07-23T06:48:51;4.47;;;2.03;;
3865;SDS011;1948;53.250;10.412;2022-07-23T06:51:18;2.80;;;1.87;;
3865;SDS011;1948;53.250;10.412;2022-07-23T06:53:48;3.50;;;1.57;;
3865;SDS011;1948;53.250;10.412;2022-07-23T06:56:15;3.47;;;1.80;;
3865;SDS011;1948;53.250;10.412;2022-07-23T06:58:44;5.67;;;2.00;;
3865;SDS011;1948;53.250;10.412;2022-07-23T07:01:11;2.30;;;2.00;;
3865;SDS011;1948;53.250;10.412;2022-07-23T07:03:41;4.40;;;2.73;;
3865;SDS011;1948;53.250;10.412;2022-07-23T07:06:07;2.30;;;1.63;;
3865;SDS011;1948;53.250;10.412;2022-07-23T07:08:34;6.60;;;1.50;;
3865;SDS011;1948;53.250;10.412;2022-07-23T07:11:01;2.57;;;1.40;;
3865;SDS011;1948;53.250;10.412;2022-07-23T07:13:29;7.37;;;1.57;;
3865;SDS011;1948;53.250;10.412;2022-07-23T07:15:56;7.50;;;1.60;;
3865;SDS011;1948;53.250;10.412;2022-07-23T07:18:23;10.67;;;1.83;;
3865;SDS011;1948;53.250;10.412;2022-07-23T07:20:53;2.83;;;1.97;;
3865;SDS011;1948;53.250;10.412;2022-07-23T07:23:23;5.33;;;1.93;;
3865;SDS011;1948;53.250;10.412;2022-07-23T07:25:52;16.97;;;1.80;;
3865;SDS011;1948;53.250;10.412;2022-07-23T07:28:21;8.33;;;2.00;;
3865;SDS011;1948;53.250;10.412;2022-07-23T07:30:53;5.10;;;1.77;;
3865;SDS011;1948;53.250;10.412;2022-07-23T07:33:20;1.53;;;1.10;;
3865;SDS011;1948;53.250;10.412;2022-07-23T07:35:50;3.73;;;1.27;;
3865;SDS011;1948;53.250;10.412;2022-07-23T07:38:17;9.53;;;2.00;;
3865;SDS011;1948;53.250;10.412;2022-07-23T07:40:47;2.00;;;1.37;;
3865;SDS011;1948;53.250;10.412;2022-07-23T07:43:14;3.07;;;1.40;;
3865;SDS011;1948;53.250;10.412;2022-07-23T07:45:41;8.63;;;1.20;;
3865;SDS011;1948;53.250;10.412;2022-07-23T07:48:08;2.37;;;1.37;;
3865;SDS011;1948;53.250;10.412;2022-07-23T07:50:35;4.00;;;1.03;;
3865;SDS011;1948;53.250;10.412;2022-07-23T07:53:02;7.93;;;5.20;;
3865;SDS011;1948;53.250;10.412;2022-07-23T07:55:29;4.30;;;1.70;;
3865;SDS011;1948;53.250;10.412;2022-07-23T07:57:57;15.60;;;1.33;;
3865;SDS011;1948;53.250;10.412;2022-07-23T08:00:27;6.13;;;1.40;;
3865;SDS011;1948;53.250;10.412;2022-07-23T08:02:55;5.20;;;1.60;;
3865;SDS011;1948;53.250;10.412;2022-07-23T08:05:28;3.27;;;1.17;;
3865;SDS011;1948;53.250;10.412;2022-07-23T08:07:57;1.33;;;1.07;;
3865;SDS011;1948;53.250;10.412;2022-07-23T08:10:26;2.53;;;1.50;;
3865;SDS011;1948;53.250;10.412;2022-07-23T08:13:00;3.60;;;1.30;;
3865;SDS011;1948;53.250;10.412;2022-07-23T08:15:30;2.00;;;1.30;;
3865;SDS011;1948;53.250;10.412;2022-07-23T08:17:59;2.70;;;1.30;;
3865;SDS011;1948;53.250;10.412;2022-07-23T08:20:29;1.17;;;0.90;;
3865;SDS011;1948;53.250;10.412;2022-07-23T08:23:02;5.37;;;1.10;;
3865;SDS011;1948;53.250;10.412;2022-07-23T08:25:34;8.67;;;1.30;;
3865;SDS011;1948;53.250;10.412;2022-07-23T08:28:08;2.03;;;0.90;;
3865;SDS011;1948;53.250;10.412;2022-07-23T08:30:41;1.43;;;1.00;;
3865;SDS011;1948;53.250;10.412;2022-07-23T08:33:15;3.20;;;1.30;;
3865;SDS011;1948;53.250;10.412;2022-07-23T08:35:59;4.73;;;1.43;;
3865;SDS011;1948;53.250;10.412;2022-07-23T08:38:29;10.87;;;1.50;;
3865;SDS011;1948;53.250;10.412;2022-07-23T08:40:57;1.43;;;1.20;;
3865;SDS011;1948;53.250;10.412;2022-07-23T08:43:31;4.87;;;0.93;;
3865;SDS011;1948;53.250;10.412;2022-07-23T08:46:01;3.53;;;1.30;;
3865;SDS011;1948;53.250;10.412;2022-07-23T08:48:31;1.80;;;1.40;;
3865;SDS011;1948;53.250;10.412;2022-07-23T08:51:01;2.10;;;1.40;;
3865;SDS011;1948;53.250;10.412;2022-07-23T08:53:31;5.40;;;1.27;;
3865;SDS011;1948;53.250;10.412;2022-07-23T08:56:03;1.53;;;1.30;;
3865;SDS011;1948;53.250;10.412;2022-07-23T08:58:31;7.07;;;2.30;;
3865;SDS011;1948;53.250;10.412;2022-07-23T09:00:58;6.43;;;1.50;;
3865;SDS011;1948;53.250;10.412;2022-07-23T09:03:29;1.80;;;1.30;;
3865;SDS011;1948;53.250;10.412;2022-07-23T09:06:02;2.37;;;1.67;;
3865;SDS011;1948;53.250;10.412;2022-07-23T09:11:10;1.43;;;1.00;;
3865;SDS011;1948;53.250;10.412;2022-07-23T09:13:48;8.60;;;1.23;;
3865;SDS011;1948;53.250;10.412;2022-07-23T09:21:30;6.97;;;1.30;;
3865;SDS011;1948;53.250;10.412;2022-07-23T09:24:08;2.73;;;1.60;;
3865;SDS011;1948;53.250;10.412;2022-07-23T09:26:43;6.07;;;2.00;;
3865;SDS011;1948;53.250;10.412;2022-07-23T09:29:23;10.30;;;2.37;;
3865;SDS011;1948;53.250;10.412;2022-07-23T09:34:24;3.47;;;1.93;;
3865;SDS011;1948;53.250;10.412;2022-07-23T09:37:08;2.40;;;1.60;;
3865;SDS011;1948;53.250;10.412;2022-07-23T09:39:48;10.60;;;1.30;;
3865;SDS011;1948;53.250;10.412;2022-07-23T09:42:22;2.00;;;1.40;;
3865;SDS011;1948;53.250;10.412;2022-07-23T09:44:52;5.40;;;1.17;;
3865;SDS011;1948;53.250;10.412;2022-07-23T09:47:22;1.63;;;1.10;;
3865;SDS011;1948;53.250;10.412;2022-07-23T09:50:01;11.63;;;1.30;;
3865;SDS011;1948;53.250;10.412;2022-07-23T09:52:36;8.97;;;1.53;;
3865;SDS011;1948;53.250;10.412;2022-07-23T09:55:11;2.43;;;1.20;;
3865;SDS011;1948;53.250;10.412;2022-07-23T09:57:40;6.23;;;1.30;;
3865;SDS011;1948;53.250;10.412;2022-07-23T10:00:11;1.57;;;1.47;;
3865;SDS011;1948;53.250;10.412;2022-07-23T10:02:41;2.43;;;1.30;;
3865;SDS011;1948;53.250;10.412;2022-07-23T10:05:12;1.40;;;1.30;;
3865;SDS011;1948;53.250;10.412;2022-07-23T10:07:40;2.40;;;1.03;;
3865;SDS011;1948;53.250;10.412;2022-07-23T10:10:08;2.27;;;1.50;;
3865;SDS011;1948;53.250;10.412;2022-07-23T10:12:42;2.80;;;1.37;;
3865;SDS011;1948;53.250;10.412;2022-07-23T10:15:31;4.67;;;1.47;;
3865;SDS011;1948;53.250;10.412;2022-07-23T10:17:58;1.50;;;1.40;;
3865;SDS011;1948;53.250;10.412;2022-07-23T10:20:31;1.97;;;1.87;;
3865;SDS011;1948;53.250;10.412;2022-07-23T10:23:18;0.90;;;0.90;;
3865;SDS011;1948;53.250;10.412;2022-07-23T10:26:41;6.90;;;1.27;;
3865;SDS011;1948;53.250;10.412;2022-07-23T10:29:47;1.33;;;1.23;;
3865;SDS011;1948;53.250;10.412;2022-07-23T10:35:47;9.13;;;1.43;;
3865;SDS011;1948;53.250;10.412;2022-07-23T10:41:30;1.23;;;1.13;;
3865;SDS011;1948;53.250;10.412;2022-07-23T10:44:06;0.93;;;0.80;;
3865;SDS011;1948;53.250;10.412;2022-07-23T10:46:57;2.30;;;0.87;;
3865;SDS011;1948;53.250;10.412;2022-07-23T10:49:49;1.57;;;1.10;;
3865;SDS011;1948;53.250;10.412;2022-07-23T10:52:21;0.90;;;0.80;;
3865;SDS011;1948;53.250;10.412;2022-07-23T10:54:55;0.83;;;0.83;;
3865;SDS011;1948;53.250;10.412;2022-07-23T10:57:48;0.70;;;0.70;;
3865;SDS011;1948;53.250;10.412;2022-07-23T11:00:20;0.80;;;0.80;;
3865;SDS011;1948;53.250;10.412;2022-07-23T11:02:53;1.20;;;1.10;;
3865;SDS011;1948;53.250;10.412;2022-07-23T11:05:23;0.83;;;0.83;;
3865;SDS011;1948;53.250;10.412;2022-07-23T11:08:16;0.90;;;0.90;;
3865;SDS011;1948;53.250;10.412;2022-07-23T11:13:46;1.10;;;1.10;;
3865;SDS011;1948;53.250;10.412;2022-07-23T11:16:20;0.83;;;0.83;;
3865;SDS011;1948;53.250;10.412;2022-07-23T11:18:55;2.63;;;0.80;;
3865;SDS011;1948;53.250;10.412;2022-07-23T11:23:59;1.00;;;0.90;;
3865;SDS011;1948;53.250;10.412;2022-07-23T11:31:55;2.03;;;1.20;;
3865;SDS011;1948;53.250;10.412;2022-07-23T11:34:55;0.87;;;0.87;;
3865;SDS011;1948;53.250;10.412;2022-07-23T11:37:33;3.47;;;1.73;;
3865;SDS011;1948;53.250;10.412;2022-07-23T11:40:10;0.90;;;0.90;;
3865;SDS011;1948;53.250;10.412;2022-07-23T11:42:57;0.80;;;0.80;;
3865;SDS011;1948;53.250;10.412;2022-07-23T11:45:30;1.70;;;1.27;;
3865;SDS011;1948;53.250;10.412;2022-07-23T11:48:03;1.03;;;0.77;;
3865;SDS011;1948;53.250;10.412;2022-07-23T11:50:32;1.53;;;0.93;;
3865;SDS011;1948;53.250;10.412;2022-07-23T11:52:59;3.53;;;1.00;;
3865;SDS011;1948;53.250;10.412;2022-07-23T11:55:27;0.93;;;0.87;;
3865;SDS011;1948;53.250;10.412;2022-07-23T11:57:54;1.30;;;1.30;;
3865;SDS011;1948;53.250;10.412;2022-07-23T12:00:26;1.43;;;1.00;;
3865;SDS011;1948;53.250;10.412;2022-07-23T12:03:05;1.17;;;1.07;;
3865;SDS011;1948;53.250;10.412;2022-07-23T12:05:37;2.30;;;1.40;;
3865;SDS011;1948;53.250;10.412;2022-07-23T12:08:06;1.47;;;1.37;;
3865;SDS011;1948;53.250;10.412;2022-07-23T12:13:08;1.13;;;0.90;;
3865;SDS011;1948;53.250;10.412;2022-07-23T12:15:46;2.50;;;1.00;;
3865;SDS011;1948;53.250;10.412;2022-07-23T12:18:21;1.17;;;0.90;;
3865;SDS011;1948;53.250;10.412;2022-07-23T12:20:54;1.33;;;1.23;;
3865;SDS011;1948;53.250;10.412;2022-07-23T12:23:25;0.80;;;0.80;;
3865;SDS011;1948;53.250;10.412;2022-07-23T12:25:55;0.80;;;0.80;;
3865;SDS011;1948;53.250;10.412;2022-07-23T12:28:29;1.10;;;0.70;;
3865;SDS011;1948;53.250;10.412;2022-07-23T12:31:03;0.60;;;0.60;;
3865;SDS011;1948;53.250;10.412;2022-07-23T12:33:32;2.30;;;2.10;;
3865;SDS011;1948;53.250;10.412;2022-07-23T12:36:05;1.90;;;1.43;;
3865;SDS011;1948;53.250;10.412;2022-07-23T12:38:47;4.03;;;1.10;;
3865;SDS011;1948;53.250;10.412;2022-07-23T12:41:15;2.20;;;0.90;;
3865;SDS011;1948;53.250;10.412;2022-07-23T12:43:43;2.57;;;0.80;;
3865;SDS011;1948;53.250;10.412;2022-07-23T12:46:19;1.17;;;1.07;;
3865;SDS011;1948;53.250;10.412;2022-07-23T12:54:05;2.83;;;1.13;;
3865;SDS011;1948;53.250;10.412;2022-07-23T12:56:36;0.73;;;0.73;;
3865;SDS011;1948;53.250;10.412;2022-07-23T12:59:14;1.37;;;0.80;;
3865;SDS011;1948;53.250;10.412;2022-07-23T13:01:45;0.97;;;0.90;;
3865;SDS011;1948;53.250;10.412;2022-07-23T13:04:26;0.60;;;0.60;;
3865;SDS011;1948;53.250;10.412;2022-07-23T13:06:54;2.50;;;1.10;;
3865;SDS011;1948;53.250;10.412;2022-07-23T13:09:26;8.03;;;6.10;;
3865;SDS011;1948;53.250;10.412;2022-07-23T13:12:07;0.60;;;0.60;;
3865;SDS011;1948;53.250;10.412;2022-07-23T13:14:55;3.80;;;0.70;;
3865;SDS011;1948;53.250;10.412;2022-07-23T13:17:22;0.97;;;0.73;;
3865;SDS011;1948;53.250;10.412;2022-07-23T13:19:54;4.00;;;0.90;;
3865;SDS011;1948;53.250;10.412;2022-07-23T13:22:21;1.23;;;0.80;;
3865;SDS011;1948;53.250;10.412;2022-07-23T13:24:50;0.70;;;0.70;;
3865;SDS011;1948;53.250;10.412;2022-07-23T13:27:20;0.77;;;0.77;;
3865;SDS011;1948;53.250;10.412;2022-07-23T13:29:50;0.80;;;0.80;;
3865;SDS011;1948;53.250;10.412;2022-07-23T13:32:22;1.77;;;0.70;;
3865;SDS011;1948;53.250;10.412;2022-07-23T13:34:51;1.20;;;1.20;;
3865;SDS011;1948;53.250;10.412;2022-07-23T13:37:18;0.80;;;0.80;;
3865;SDS011;1948;53.250;10.412;2022-07-23T13:39:45;7.63;;;0.70;;
3865;SDS011;1948;53.250;10.412;2022-07-23T13:42:15;0.90;;;0.90;;
3865;SDS011;1948;53.250;10.412;2022-07-23T13:44:46;2.40;;;0.80;;
3865;SDS011;1948;53.250;10.412;2022-07-23T13:47:13;2.63;;;0.87;;
3865;SDS011;1948;53.250;10.412;2022-07-23T13:49:40;1.00;;;0.70;;
3865;SDS011;1948;53.250;10.412;2022-07-23T13:52:07;1.13;;;1.03;;
3865;SDS011;1948;53.250;10.412;2022-07-23T13:54:36;0.50;;;0.50;;
3865;SDS011;1948;53.250;10.412;2022-07-23T13:57:03;0.93;;;0.90;;
3865;SDS011;1948;53.250;10.412;2022-07-23T13:59:30;1.13;;;0.77;;
3865;SDS011;1948;53.250;10.412;2022-07-23T14:01:57;1.70;;;1.20;;
3865;SDS011;1948;53.250;10.412;2022-07-23T14:04:45;2.33;;;0.97;;
3865;SDS011;1948;53.250;10.412;2022-07-23T14:07:12;1.00;;;1.00;;
3865;SDS011;1948;53.250;10.412;2022-07-23T14:09:41;2.03;;;1.00;;
3865;SDS011;1948;53.250;10.412;2022-07-23T14:12:09;4.07;;;0.73;;
3865;SDS011;1948;53.250;10.412;2022-07-23T14:14:37;1.80;;;0.90;;
3865;SDS011;1948;53.250;10.412;2022-07-23T14:17:09;1.13;;;0.93;;
3865;SDS011;1948;53.250;10.412;2022-07-23T14:19:38;0.90;;;0.90;;
3865;SDS011;1948;53.250;10.412;2022-07-23T14:22:05;0.70;;;0.70;;
3865;SDS011;1948;53.250;10.412;2022-07-23T14:24:32;0.87;;;0.80;;
3865;SDS011;1948;53.250;10.412;2022-07-23T14:27:01;0.87;;;0.87;;
3865;SDS011;1948;53.250;10.412;2022-07-23T14:29:33;2.13;;;0.97;;
3865;SDS011;1948;53.250;10.412;2022-07-23T14:32:00;4.77;;;0.70;;
3865;SDS011;1948;53.250;10.412;2022-07-23T14:34:28;2.97;;;0.70;;
3865;SDS011;1948;53.250;10.412;2022-07-23T14:36:55;1.80;;;0.80;;
3865;SDS011;1948;53.250;10.412;2022-07-23T14:39:26;2.10;;;0.97;;
3865;SDS011;1948;53.250;10.412;2022-07-23T14:41:56;9.23;;;1.10;;
3865;SDS011;1948;53.250;10.412;2022-07-23T14:44:25;1.03;;;0.90;;
3865;SDS011;1948;53.250;10.412;2022-07-23T14:46:53;2.60;;;0.80;;
3865;SDS011;1948;53.250;10.412;2022-07-23T14:49:20;0.97;;;0.80;;
3865;SDS011;1948;53.250;10.412;2022-07-23T14:51:52;1.00;;;1.00;;
3865;SDS011;1948;53.250;10.412;2022-07-23T14:54:19;0.90;;;0.90;;
3865;SDS011;1948;53.250;10.412;2022-07-23T14:56:46;1.97;;;1.00;;
3865;SDS011;1948;53.250;10.412;2022-07-23T14:59:16;2.97;;;1.30;;
3865;SDS011;1948;53.250;10.412;2022-07-23T15:01:43;1.70;;;1.00;;
3865;SDS011;1948;53.250;10.412;2022-07-23T15:04:13;1.30;;;1.30;;
3865;SDS011;1948;53.250;10.412;2022-07-23T15:07:02;2.90;;;1.30;;
3865;SDS011;1948;53.250;10.412;2022-07-23T15:09:29;0.83;;;0.83;;
3865;SDS011;1948;53.250;10.412;2022-07-23T15:11:58;2.40;;;1.37;;
3865;SDS011;1948;53.250;10.412;2022-07-23T15:14:28;1.00;;;1.00;;
3865;SDS011;1948;53.250;10.412;2022-07-23T15:17:00;0.90;;;0.90;;
3865;SDS011;1948;53.250;10.412;2022-07-23T15:19:27;0.80;;;0.80;;
3865;SDS011;1948;53.250;10.412;2022-07-23T15:21:56;2.73;;;0.90;;
3865;SDS011;1948;53.250;10.412;2022-07-23T15:24:23;2.03;;;1.00;;
3865;SDS011;1948;53.250;10.412;2022-07-23T15:26:50;3.83;;;0.97;;
3865;SDS011;1948;53.250;10.412;2022-07-23T15:29:17;1.27;;;0.90;;
3865;SDS011;1948;53.250;10.412;2022-07-23T15:31:46;1.10;;;1.00;;
3865;SDS011;1948;53.250;10.412;2022-07-23T15:34:24;1.90;;;1.00;;
3865;SDS011;1948;53.250;10.412;2022-07-23T15:36:55;1.10;;;1.00;;
3865;SDS011;1948;53.250;10.412;2022-07-23T15:39:39;1.10;;;1.10;;
3865;SDS011;1948;53.250;10.412;2022-07-23T15:42:10;3.13;;;1.47;;
3865;SDS011;1948;53.250;10.412;2022-07-23T15:44:40;1.33;;;0.87;;
3865;SDS011;1948;53.250;10.412;2022-07-23T15:47:13;1.93;;;1.23;;
3865;SDS011;1948;53.250;10.412;2022-07-23T15:49:46;1.63;;;1.20;;
3865;SDS011;1948;53.250;10.412;2022-07-23T15:52:13;6.23;;;1.10;;
3865;SDS011;1948;53.250;10.412;2022-07-23T15:54:40;5.07;;;1.10;;
3865;SDS011;1948;53.250;10.412;2022-07-23T15:57:08;2.00;;;0.73;;